createdAt,value
2022-08-17T00:00:02.086Z,99.90
2022-08-17T00:02:29.205Z,99.90
2022-08-17T00:04:58.357Z,99.90
2022-08-17T00:07:25.575Z,99.90
2022-08-17T00:09:52.709Z,99.90
2022-08-17T00:12:40.911Z,99.90
2022-08-17T00:15:10.726Z,99.90
2022-08-17T00:17:38.513Z,99.90
2022-08-17T00:20:06.135Z,99.90
2022-08-17T00:22:36.558Z,99.90
2022-08-17T00:25:12.078Z,99.90
2022-08-17T00:27:39.332Z,99.90
2022-08-17T00:30:08.235Z,99.90
2022-08-17T00:33:11.806Z,99.90
2022-08-17T00:35:34.417Z,99.90
2022-08-17T00:38:01.601Z,99.90
2022-08-17T00:40:40.660Z,99.90
2022-08-17T00:43:36.484Z,99.90
2022-08-17T00:46:34.840Z,99.90
2022-08-17T00:49:02.260Z,99.90
2022-08-17T00:51:38.664Z,99.90
2022-08-17T00:54:20.939Z,99.90
2022-08-17T00:57:00.650Z,99.90
2022-08-17T00:59:32.467Z,99.90
2022-08-17T01:01:59.808Z,99.90
2022-08-17T01:04:29.666Z,99.90
2022-08-17T01:06:57.596Z,99.90
2022-08-17T01:09:24.627Z,99.90
2022-08-17T01:11:52.479Z,99.90
2022-08-17T01:14:22.322Z,99.90
2022-08-17T01:16:51.712Z,99.90
2022-08-17T01:19:23.453Z,99.90
2022-08-17T01:21:52.316Z,99.90
2022-08-17T01:24:19.161Z,99.90
2022-08-17T01:26:46.721Z,99.90
2022-08-17T01:29:14.058Z,99.90
2022-08-17T01:31:47.721Z,99.90
2022-08-17T01:34:17.921Z,99.90
2022-08-17T01:36:47.619Z,99.90
2022-08-17T01:39:24.841Z,99.90
2022-08-17T01:41:57.631Z,99.90
2022-08-17T01:44:27.103Z,99.90
2022-08-17T01:46:54.933Z,99.90
2022-08-17T01:49:23.381Z,99.90
2022-08-17T01:51:50.253Z,99.90
2022-08-17T01:54:19.381Z,99.90
2022-08-17T01:56:49.867Z,99.90
2022-08-17T01:59:18.884Z,99.90
2022-08-17T02:01:46.977Z,99.90
2022-08-17T02:04:14.746Z,99.90
2022-08-17T02:06:53.573Z,99.90
2022-08-17T02:09:25.459Z,99.90
2022-08-17T02:11:54.714Z,99.90
2022-08-17T02:14:23.416Z,99.90
2022-08-17T02:16:50.710Z,99.90
2022-08-17T02:19:17.558Z,99.90
2022-08-17T02:21:46.968Z,99.90
2022-08-17T02:25:00.551Z,99.90
2022-08-17T02:27:06.267Z,99.90
2022-08-17T02:29:33.025Z,99.90
2022-08-17T02:32:02.426Z,99.90
2022-08-17T02:34:30.073Z,99.90
2022-08-17T02:36:56.845Z,99.90
2022-08-17T02:39:24.177Z,99.90
2022-08-17T02:41:59.869Z,99.90
2022-08-17T02:44:39.150Z,99.90
2022-08-17T02:47:08.520Z,99.90
2022-08-17T02:49:36.023Z,99.90
2022-08-17T02:52:06.279Z,99.90
2022-08-17T02:54:41.599Z,99.90
2022-08-17T02:57:10.041Z,99.90
2022-08-17T02:59:41.626Z,99.90
2022-08-17T03:02:12.242Z,99.90
2022-08-17T03:04:39.435Z,99.90
2022-08-17T03:07:06.741Z,99.90
2022-08-17T03:09:33.840Z,99.90
2022-08-17T03:12:09.536Z,99.90
2022-08-17T03:14:41.973Z,99.90
2022-08-17T03:17:10.656Z,99.90
2022-08-17T03:19:37.576Z,99.90
2022-08-17T03:22:35.962Z,99.90
2022-08-17T03:24:57.399Z,99.90
2022-08-17T03:27:24.543Z,99.90
2022-08-17T03:29:51.314Z,99.90
2022-08-17T03:32:21.021Z,99.90
2022-08-17T03:34:48.136Z,99.90
2022-08-17T03:37:15.663Z,99.90
2022-08-17T03:39:42.998Z,99.90
2022-08-17T03:42:31.552Z,99.90
2022-08-17T03:44:59.794Z,99.90
2022-08-17T03:47:45.583Z,99.90
2022-08-17T03:50:32.602Z,99.90
2022-08-17T03:53:18.618Z,99.90
2022-08-17T03:56:04.223Z,99.90
2022-08-17T03:58:31.389Z,99.90
2022-08-17T04:00:58.233Z,99.90
2022-08-17T04:03:25.361Z,99.90
2022-08-17T04:05:52.219Z,99.90
2022-08-17T04:08:19.499Z,99.90
2022-08-17T04:10:46.530Z,99.90
2022-08-17T04:13:14.471Z,99.90
2022-08-17T04:15:41.362Z,99.90
2022-08-17T04:18:10.948Z,99.90
2022-08-17T04:20:37.929Z,99.90
2022-08-17T04:23:11.772Z,99.90
2022-08-17T04:25:45.018Z,99.90
2022-08-17T04:28:15.641Z,99.90
2022-08-17T04:30:45.335Z,99.90
2022-08-17T04:33:17.552Z,99.90
2022-08-17T04:35:49.354Z,99.90
2022-08-17T04:38:22.367Z,99.90
2022-08-17T04:41:08.654Z,99.90
2022-08-17T04:43:36.464Z,99.90
2022-08-17T04:46:11.642Z,99.90
2022-08-17T04:48:43.051Z,99.90
2022-08-17T04:51:24.807Z,99.90
2022-08-17T04:53:55.192Z,99.90
2022-08-17T04:56:24.552Z,99.90
2022-08-17T04:58:53.493Z,99.90
2022-08-17T05:01:23.351Z,99.90
2022-08-17T05:03:52.128Z,99.90
2022-08-17T05:06:19.072Z,99.90
2022-08-17T05:08:46.177Z,99.90
2022-08-17T05:11:12.957Z,99.90
2022-08-17T05:13:40.142Z,99.90
2022-08-17T05:16:07.285Z,99.90
2022-08-17T05:18:34.157Z,99.90
2022-08-17T05:21:02.502Z,99.90
2022-08-17T05:23:35.004Z,99.90
2022-08-17T05:26:11.642Z,99.90
2022-08-17T05:28:52.749Z,99.90
2022-08-17T05:31:21.135Z,99.90
2022-08-17T05:33:49.548Z,99.90
2022-08-17T05:36:43.691Z,99.90
2022-08-17T05:39:04.451Z,99.90
2022-08-17T05:41:31.193Z,99.90
2022-08-17T05:43:58.421Z,99.90
2022-08-17T05:46:28.868Z,99.90
2022-08-17T05:49:17.289Z,99.90
2022-08-17T05:52:08.647Z,99.90
2022-08-17T05:55:10.573Z,99.90
2022-08-17T05:57:43.578Z,99.90
2022-08-17T06:00:42.152Z,99.90
2022-08-17T06:03:47.890Z,99.90
2022-08-17T06:06:31.217Z,99.90
2022-08-17T06:09:13.210Z,99.90
2022-08-17T06:12:06.605Z,99.90
2022-08-17T06:15:02.629Z,99.90
2022-08-17T06:17:30.301Z,99.90
2022-08-17T06:20:05.931Z,99.90
2022-08-17T06:22:41.504Z,99.90
2022-08-17T06:25:26.287Z,99.90
2022-08-17T06:28:04.829Z,99.90
2022-08-17T06:30:59.294Z,99.90
2022-08-17T06:33:37.095Z,99.90
2022-08-17T06:36:19.397Z,99.90
2022-08-17T06:39:03.373Z,99.90
2022-08-17T06:41:49.943Z,99.90
2022-08-17T06:44:49.754Z,99.90
2022-08-17T06:47:29.448Z,99.90
2022-08-17T06:50:05.992Z,99.90
2022-08-17T06:52:46.860Z,99.90
2022-08-17T06:55:46.813Z,99.90
2022-08-17T06:58:16.303Z,99.90
2022-08-17T07:00:47.654Z,99.90
2022-08-17T07:03:29.285Z,99.90
2022-08-17T07:06:05.909Z,99.90
2022-08-17T07:08:48.059Z,99.90
2022-08-17T07:11:19.389Z,99.90
2022-08-17T07:14:27.503Z,99.90
2022-08-17T07:16:56.576Z,97.70
2022-08-17T07:19:26.981Z,94.90
2022-08-17T07:22:01.318Z,94.30
2022-08-17T07:24:30.920Z,93.60
2022-08-17T07:27:42.363Z,92.10
2022-08-17T07:30:23.047Z,89.40
2022-08-17T07:33:08.672Z,78.20
2022-08-17T07:35:44.781Z,74.70
2022-08-17T07:38:25.282Z,72.60
2022-08-17T07:41:03.264Z,71.80
2022-08-17T07:43:39.565Z,69.90
2022-08-17T07:46:48.158Z,66.90
2022-08-17T07:49:14.851Z,65.00
2022-08-17T07:51:46.100Z,62.20
2022-08-17T07:54:15.665Z,59.70
2022-08-17T07:56:47.978Z,57.60
2022-08-17T07:59:16.824Z,56.50
2022-08-17T08:01:58.852Z,56.00
2022-08-17T08:07:35.070Z,56.30
2022-08-17T08:10:15.629Z,54.20
2022-08-17T08:12:53.733Z,57.30
2022-08-17T08:15:33.495Z,57.90
2022-08-17T08:18:04.030Z,56.40
2022-08-17T08:20:52.970Z,55.50
2022-08-17T08:23:44.552Z,54.80
2022-08-17T08:26:20.500Z,52.50
2022-08-17T08:29:08.806Z,51.30
2022-08-17T08:32:01.378Z,53.10
2022-08-17T08:35:02.455Z,53.70
2022-08-17T08:37:43.693Z,55.30
2022-08-17T08:40:40.188Z,54.90
2022-08-17T08:43:37.899Z,55.00
2022-08-17T08:46:35.558Z,54.30
2022-08-17T08:50:02.528Z,52.70
2022-08-17T08:52:55.199Z,49.90
2022-08-17T08:55:45.534Z,48.50
2022-08-17T08:58:31.314Z,48.20
2022-08-17T09:01:35.397Z,47.60
2022-08-17T09:04:25.538Z,45.70
2022-08-17T09:07:07.605Z,45.40
2022-08-17T09:09:46.702Z,45.90
2022-08-17T09:12:35.370Z,46.20
2022-08-17T09:15:13.668Z,46.30
2022-08-17T09:18:14.723Z,47.30
2022-08-17T09:20:52.016Z,47.90
2022-08-17T09:23:39.268Z,47.70
2022-08-17T09:26:25.507Z,47.30
2022-08-17T09:29:00.301Z,48.40
2022-08-17T09:31:48.710Z,49.30
2022-08-17T09:34:22.148Z,52.40
2022-08-17T09:37:23.232Z,51.70
2022-08-17T09:40:13.870Z,56.60
2022-08-17T09:43:19.027Z,60.20
2022-08-17T09:45:51.998Z,65.50
2022-08-17T09:48:25.420Z,67.60
2022-08-17T09:51:07.705Z,68.10
2022-08-17T09:53:39.092Z,68.60
2022-08-17T09:56:05.929Z,67.90
2022-08-17T09:58:35.394Z,69.00
2022-08-17T10:01:25.593Z,70.80
2022-08-17T10:04:33.210Z,71.60
2022-08-17T10:07:16.716Z,73.60
2022-08-17T10:10:03.730Z,74.90
2022-08-17T10:12:54.198Z,74.80
2022-08-17T10:15:48.818Z,74.70
2022-08-17T10:18:50.700Z,74.50
2022-08-17T10:21:37.808Z,76.30
2022-08-17T10:24:39.581Z,75.10
2022-08-17T10:27:52.995Z,74.90
2022-08-17T10:30:23.641Z,74.10
2022-08-17T10:33:01.383Z,75.10
2022-08-17T10:35:52.779Z,73.90
2022-08-17T10:38:57.209Z,73.20
2022-08-17T10:41:26.776Z,73.40
2022-08-17T10:44:37.131Z,74.80
2022-08-17T10:47:15.697Z,73.00
2022-08-17T10:49:49.872Z,74.10
2022-08-17T10:52:20.111Z,73.40
2022-08-17T10:54:47.961Z,74.00
2022-08-17T10:57:26.949Z,74.50
2022-08-17T11:00:03.419Z,75.20
2022-08-17T11:02:45.788Z,75.50
2022-08-17T11:05:43.999Z,76.60
2022-08-17T11:08:51.274Z,74.50
2022-08-17T11:11:47.956Z,75.10
2022-08-17T11:14:41.288Z,74.40
2022-08-17T11:17:30.484Z,75.80
2022-08-17T11:20:35.166Z,76.00
2022-08-17T11:23:32.186Z,78.10
2022-08-17T11:26:08.211Z,74.50
2022-08-17T11:28:50.354Z,76.20
2022-08-17T11:31:38.695Z,75.10
2022-08-17T11:34:26.930Z,73.60
2022-08-17T11:37:03.769Z,72.60
2022-08-17T11:39:38.761Z,72.40
2022-08-17T11:42:12.173Z,72.10
2022-08-17T11:44:58.591Z,72.30
2022-08-17T11:48:31.525Z,71.60
2022-08-17T11:51:35.104Z,71.90
2022-08-17T11:54:36.197Z,69.80
2022-08-17T11:57:29.897Z,69.20
2022-08-17T12:00:12.835Z,70.40
2022-08-17T12:02:50.572Z,69.70
2022-08-17T12:05:17.319Z,70.40
2022-08-17T12:07:53.230Z,71.40
2022-08-17T12:10:31.703Z,71.90
2022-08-17T12:13:10.343Z,70.80
2022-08-17T12:15:50.452Z,71.60
2022-08-17T12:18:28.087Z,70.40
2022-08-17T12:21:13.754Z,71.40
2022-08-17T12:23:50.297Z,72.30
2022-08-17T12:26:20.671Z,73.80
2022-08-17T12:28:52.087Z,73.20
2022-08-17T12:31:29.474Z,73.70
2022-08-17T12:33:57.055Z,75.50
2022-08-17T12:36:25.987Z,74.20
2022-08-17T12:39:13.705Z,75.70
2022-08-17T12:41:44.619Z,74.60
2022-08-17T12:44:12.712Z,75.30
2022-08-17T12:46:48.322Z,76.00
2022-08-17T12:49:35.643Z,75.10
2022-08-17T12:52:25.070Z,74.30
2022-08-17T12:55:07.003Z,74.50
2022-08-17T12:57:41.996Z,73.50
2022-08-17T13:00:12.613Z,75.70
2022-08-17T13:02:47.133Z,76.10
2022-08-17T13:05:25.043Z,76.30
2022-08-17T13:07:53.441Z,76.40
2022-08-17T13:10:33.029Z,76.30
2022-08-17T13:13:05.251Z,77.50
2022-08-17T13:15:44.940Z,76.70
2022-08-17T13:18:39.006Z,77.50
2022-08-17T13:21:23.757Z,78.20
2022-08-17T13:24:11.119Z,78.70
2022-08-17T13:26:42.364Z,78.50
2022-08-17T13:29:34.912Z,79.60
2022-08-17T13:32:05.370Z,81.50
2022-08-17T13:35:11.747Z,83.30
2022-08-17T13:37:37.290Z,84.50
2022-08-17T13:40:10.012Z,82.60
2022-08-17T13:42:51.431Z,82.20
2022-08-17T13:45:32.210Z,82.70
2022-08-17T13:48:08.883Z,83.30
2022-08-17T13:50:47.501Z,83.00
2022-08-17T13:53:27.673Z,84.20
2022-08-17T13:56:01.485Z,83.70
2022-08-17T13:58:32.839Z,85.00
2022-08-17T14:01:32.813Z,84.70
2022-08-17T14:04:02.207Z,83.50
2022-08-17T14:06:52.062Z,84.60
2022-08-17T14:09:24.346Z,83.90
2022-08-17T14:11:52.851Z,84.00
2022-08-17T14:14:20.174Z,83.80
2022-08-17T14:16:47.687Z,84.70
2022-08-17T14:19:14.809Z,84.40
2022-08-17T14:21:46.641Z,84.10
2022-08-17T14:24:27.652Z,84.10
2022-08-17T14:26:55.217Z,82.20
2022-08-17T14:29:33.821Z,83.60
2022-08-17T14:32:09.193Z,81.90
2022-08-17T14:34:36.538Z,80.80
2022-08-17T14:37:03.358Z,81.70
2022-08-17T14:39:30.152Z,81.50
2022-08-17T14:41:58.361Z,81.10
2022-08-17T14:44:25.155Z,80.50
2022-08-17T14:46:52.152Z,80.50
2022-08-17T14:49:20.704Z,81.60
2022-08-17T14:51:47.572Z,81.40
2022-08-17T14:54:32.850Z,80.60
2022-08-17T14:57:04.657Z,79.50
2022-08-17T14:59:52.291Z,80.00
2022-08-17T15:02:30.128Z,80.30
2022-08-17T15:05:03.886Z,79.20
2022-08-17T15:07:31.785Z,79.10
2022-08-17T15:10:03.316Z,81.40
2022-08-17T15:12:33.631Z,81.10
2022-08-17T15:15:04.804Z,81.90
2022-08-17T15:17:44.446Z,82.70
2022-08-17T15:20:19.490Z,82.80
2022-08-17T15:22:50.123Z,83.60
2022-08-17T15:25:19.088Z,84.30
2022-08-17T15:27:46.366Z,83.40
2022-08-17T15:30:17.976Z,84.50
2022-08-17T15:32:46.892Z,83.60
2022-08-17T15:35:27.349Z,83.50
2022-08-17T15:38:11.161Z,83.80
2022-08-17T15:40:46.812Z,84.00
2022-08-17T15:43:27.572Z,83.40
2022-08-17T15:46:07.890Z,83.40
2022-08-17T15:48:42.208Z,83.50
2022-08-17T15:51:20.249Z,84.80
2022-08-17T15:53:50.290Z,84.50
2022-08-17T15:56:17.876Z,84.00
2022-08-17T15:58:46.858Z,83.70
2022-08-17T16:01:27.865Z,83.40
2022-08-17T16:04:21.222Z,84.40
2022-08-17T16:06:53.421Z,84.20
2022-08-17T16:09:20.599Z,83.50
2022-08-17T16:11:52.083Z,82.50
2022-08-17T16:14:24.023Z,85.30
2022-08-17T16:16:52.372Z,86.40
2022-08-17T16:19:19.245Z,89.10
2022-08-17T16:21:48.701Z,86.30
2022-08-17T16:25:11.525Z,84.20
2022-08-17T16:27:38.371Z,84.20
2022-08-17T16:30:07.193Z,84.30
2022-08-17T16:32:34.017Z,83.90
2022-08-17T16:35:07.355Z,82.80
2022-08-17T16:37:34.966Z,83.60
2022-08-17T16:40:02.092Z,85.00
2022-08-17T16:42:33.050Z,84.70
2022-08-17T16:45:24.382Z,84.80
2022-08-17T16:47:51.289Z,84.60
2022-08-17T16:50:20.543Z,85.40
2022-08-17T16:52:49.528Z,85.90
2022-08-17T16:55:28.773Z,84.90
2022-08-17T16:57:56.820Z,83.60
2022-08-17T17:00:23.575Z,86.70
2022-08-17T17:02:50.902Z,85.30
2022-08-17T17:05:42.860Z,83.00
2022-08-17T17:08:20.585Z,83.60
2022-08-17T17:10:50.050Z,83.60
2022-08-17T17:13:35.066Z,83.30
2022-08-17T17:16:21.931Z,82.10
2022-08-17T17:19:11.068Z,80.90
2022-08-17T17:21:46.864Z,82.50
2022-08-17T17:24:23.925Z,82.30
2022-08-17T17:27:07.514Z,81.80
2022-08-17T17:29:53.247Z,83.90
2022-08-17T17:32:32.445Z,85.60
2022-08-17T17:35:16.478Z,84.30
2022-08-17T17:37:45.380Z,86.20
2022-08-17T17:40:23.293Z,85.50
2022-08-17T17:42:55.594Z,86.30
2022-08-17T17:45:56.801Z,87.00
2022-08-17T17:48:24.188Z,87.70
2022-08-17T17:51:05.821Z,87.50
2022-08-17T17:53:58.891Z,88.30
2022-08-17T17:56:43.169Z,89.30
2022-08-17T17:59:24.462Z,90.20
2022-08-17T18:02:41.692Z,91.60
2022-08-17T18:05:46.636Z,93.10
2022-08-17T18:08:32.297Z,94.10
2022-08-17T18:11:24.427Z,96.30
2022-08-17T18:14:03.659Z,97.50
2022-08-17T18:16:34.450Z,99.50
2022-08-17T18:19:01.582Z,99.90
2022-08-17T18:21:49.239Z,99.90
2022-08-17T18:24:29.379Z,99.90
2022-08-17T18:26:59.604Z,99.90
2022-08-17T18:29:34.411Z,99.90
2022-08-17T18:32:25.580Z,99.90
2022-08-17T18:35:14.735Z,99.90
2022-08-17T18:37:54.596Z,99.90
2022-08-17T18:40:27.134Z,99.90
2022-08-17T18:43:05.545Z,99.90
2022-08-17T18:45:58.086Z,99.90
2022-08-17T18:48:32.885Z,99.90
2022-08-17T18:51:20.415Z,99.90
2022-08-17T18:54:07.171Z,99.90
2022-08-17T18:56:36.258Z,99.90
2022-08-17T18:59:12.766Z,99.90
2022-08-17T19:01:57.092Z,99.90
2022-08-17T19:04:57.500Z,99.90
2022-08-17T19:07:29.281Z,99.90
2022-08-17T19:10:26.934Z,99.90
2022-08-17T19:13:13.793Z,99.90
2022-08-17T19:16:15.330Z,99.90
2022-08-17T19:19:08.048Z,99.90
2022-08-17T19:21:40.544Z,99.90
2022-08-17T19:24:19.619Z,99.90
2022-08-17T19:27:18.446Z,99.90
2022-08-17T19:29:56.933Z,99.90
2022-08-17T19:37:54.261Z,99.90
2022-08-17T19:40:51.585Z,99.90
2022-08-17T19:44:08.839Z,99.90
2022-08-17T19:47:36.282Z,99.90
2022-08-17T19:50:29.576Z,99.90
2022-08-17T19:56:08.661Z,99.90
2022-08-17T19:59:03.445Z,99.90
2022-08-17T20:01:54.675Z,99.90
2022-08-17T20:04:33.393Z,99.90
2022-08-17T20:07:06.249Z,99.90
2022-08-17T20:09:45.118Z,99.90
2022-08-17T20:12:18.578Z,99.90
2022-08-17T20:15:00.269Z,99.90
2022-08-17T20:17:34.463Z,99.90
2022-08-17T20:20:24.047Z,99.90
2022-08-17T20:23:05.635Z,99.90
2022-08-17T20:25:46.897Z,99.90
2022-08-17T20:28:28.818Z,99.90
2022-08-17T20:30:56.547Z,99.90
2022-08-17T20:33:26.069Z,99.90
2022-08-17T20:36:11.973Z,99.90
2022-08-17T20:38:49.305Z,99.90
2022-08-17T20:41:22.433Z,99.90
2022-08-17T20:44:04.174Z,99.90
2022-08-17T20:46:56.992Z,99.90
2022-08-17T20:49:45.001Z,99.90
2022-08-17T20:52:16.833Z,99.90
2022-08-17T20:54:51.095Z,99.90
2022-08-17T20:57:33.413Z,99.90
2022-08-17T21:00:18.222Z,99.90
2022-08-17T21:02:50.014Z,99.90
2022-08-17T21:05:35.311Z,99.90
2022-08-17T21:08:15.631Z,99.90
2022-08-17T21:10:46.463Z,99.90
2022-08-17T21:13:16.273Z,99.90
2022-08-17T21:16:12.287Z,99.90
2022-08-17T21:18:57.855Z,99.90
2022-08-17T21:21:41.660Z,99.90
2022-08-17T21:24:19.902Z,99.90
2022-08-17T21:27:26.185Z,99.90
2022-08-17T21:30:21.136Z,99.90
2022-08-17T21:33:20.174Z,99.90
2022-08-17T21:35:51.438Z,99.90
2022-08-17T21:38:22.046Z,99.90
2022-08-17T21:40:53.906Z,99.90
2022-08-17T21:43:32.436Z,99.90
2022-08-17T21:46:11.199Z,99.90
2022-08-17T21:48:45.768Z,99.90
2022-08-17T21:51:26.073Z,99.90
2022-08-17T21:53:57.887Z,99.90
2022-08-17T21:56:34.277Z,99.90
2022-08-17T21:59:05.403Z,99.90
2022-08-17T22:01:39.758Z,99.90
2022-08-17T22:04:24.319Z,99.90
2022-08-17T22:06:57.569Z,99.90
2022-08-17T22:09:34.245Z,99.90
2022-08-17T22:12:06.659Z,99.90
2022-08-17T22:14:53.272Z,99.90
2022-08-17T22:17:30.507Z,99.90
2022-08-17T22:20:18.033Z,99.90
2022-08-17T22:23:06.880Z,99.90
2022-08-17T22:25:39.569Z,99.90
2022-08-17T22:28:09.141Z,99.90
2022-08-17T22:31:02.242Z,99.90
2022-08-17T22:33:47.182Z,99.90
2022-08-17T22:36:25.125Z,99.90
2022-08-17T22:39:02.401Z,99.90
2022-08-17T22:41:37.827Z,99.90
2022-08-17T22:44:18.004Z,99.90
2022-08-17T22:47:01.860Z,99.90
2022-08-17T22:49:54.046Z,99.90
2022-08-17T22:52:32.399Z,99.90
2022-08-17T22:55:32.079Z,99.90
2022-08-17T22:58:18.585Z,99.90
2022-08-17T23:00:49.027Z,99.90
2022-08-17T23:03:26.928Z,99.90
2022-08-17T23:06:04.049Z,99.90
2022-08-17T23:08:33.903Z,99.90
2022-08-17T23:11:01.178Z,99.90
2022-08-17T23:13:28.919Z,99.90
2022-08-17T23:15:55.726Z,99.90
2022-08-17T23:18:23.985Z,99.90
2022-08-17T23:20:50.912Z,99.90
2022-08-17T23:23:23.369Z,99.90
2022-08-17T23:25:50.494Z,99.90
2022-08-17T23:28:17.634Z,99.90
2022-08-17T23:30:46.898Z,99.90
2022-08-17T23:33:26.006Z,99.90
2022-08-17T23:35:53.905Z,99.90
2022-08-17T23:38:21.100Z,99.90
2022-08-17T23:40:48.213Z,99.90
2022-08-17T23:43:23.377Z,99.90
2022-08-17T23:45:57.582Z,99.90
2022-08-17T23:48:33.017Z,99.90
2022-08-17T23:51:05.938Z,99.90
2022-08-17T23:53:36.314Z,99.90
2022-08-17T23:56:10.233Z,99.90
2022-08-17T23:58:39.282Z,99.90
